Time;durP1;ratioP1;P1;durP2;ratioP2;P2;SDS_P1;SDS_P2;PMS_P1;PMS_P2;Temp;Humidity;BMP_temperature;BMP_pressure;BME280_temperature;BME280_humidity;BME280_pressure;Samples;Min_cycle;Max_cycle;Signal;HPM_P1;HPM_P2
2022/03/14 00:01:01;;;;;;;;;;;24.00;99.90;;;;;;6130015;23;19975;-76
2022/03/14 00:03:28;;;;;;;;;;;24.20;99.90;;;;;;6129913;23;19932;-76
2022/03/14 00:05:54;;;;;;;;;;;24.10;99.90;;;;;;6129538;23;19919;-76
2022/03/14 00:08:23;;;;;;;;;;;24.00;99.90;;;;;;6156256;23;19957;-77
2022/03/14 00:10:51;;;;;;;;;;;23.60;99.90;;;;;;6129936;23;20236;-76
2022/03/14 00:13:19;;;;;;;;;;;23.30;99.90;;;;;;6130142;23;19905;-77
2022/03/14 00:15:46;;;;;;;;;;;23.10;99.90;;;;;;6129987;23;20377;-77
2022/03/14 00:18:13;;;;;;;;;;;22.80;99.90;;;;;;6157748;23;19905;-76
2022/03/14 00:20:42;;;;;;;;;;;22.50;99.90;;;;;;6157993;23;19901;-76
2022/03/14 00:23:09;;;;;;;;;;;22.30;99.90;;;;;;6158016;23;19904;-75
2022/03/14 00:25:36;;;;;;;;;;;22.10;99.90;;;;;;6157752;23;20381;-75
2022/03/14 00:28:04;;;;;;;;;;;21.90;99.90;;;;;;6158145;23;19904;-76
2022/03/14 00:30:30;;;;;;;;;;;21.80;99.90;;;;;;6157990;23;19935;-75
2022/03/14 00:32:57;;;;;;;;;;;21.70;99.90;;;;;;6159063;23;19904;-75
2022/03/14 00:35:25;;;;;;;;;;;21.70;99.90;;;;;;6132787;23;19901;-75
2022/03/14 00:37:51;;;;;;;;;;;21.60;99.90;;;;;;6157986;23;19904;-75
2022/03/14 00:40:18;;;;;;;;;;;21.70;99.90;;;;;;6132063;23;19907;-76
2022/03/14 00:42:48;;;;;;;;;;;21.70;99.90;;;;;;6158168;23;19904;-75
2022/03/14 00:45:14;;;;;;;;;;;21.70;99.90;;;;;;6157920;23;19901;-74
2022/03/14 00:47:41;;;;;;;;;;;21.70;99.90;;;;;;6158036;23;20238;-75
2022/03/14 00:50:08;;;;;;;;;;;21.70;99.90;;;;;;6157947;23;19900;-75
2022/03/14 00:52:35;;;;;;;;;;;21.70;99.90;;;;;;6131584;23;19955;-76
2022/03/14 00:55:01;;;;;;;;;;;21.70;99.90;;;;;;6157706;23;19965;-76
2022/03/14 00:57:28;;;;;;;;;;;21.50;99.90;;;;;;6158226;23;19900;-76
2022/03/14 00:59:55;;;;;;;;;;;21.50;99.90;;;;;;6133102;23;19900;-76
2022/03/14 01:02:21;;;;;;;;;;;21.50;99.90;;;;;;6131622;23;19900;-77
2022/03/14 01:04:48;;;;;;;;;;;21.70;99.90;;;;;;6157365;23;19912;-76
2022/03/14 01:07:15;;;;;;;;;;;21.90;99.90;;;;;;6131563;23;19907;-76
2022/03/14 01:09:41;;;;;;;;;;;22.20;99.90;;;;;;6158813;23;19905;-76
2022/03/14 01:12:08;;;;;;;;;;;22.40;99.90;;;;;;6131101;23;19908;-76
2022/03/14 01:14:35;;;;;;;;;;;22.70;99.90;;;;;;6131353;23;19927;-76
2022/03/14 01:17:02;;;;;;;;;;;23.10;99.90;;;;;;6157452;23;19901;-75
2022/03/14 01:19:29;;;;;;;;;;;23.40;99.90;;;;;;6157300;23;19905;-75
2022/03/14 01:21:55;;;;;;;;;;;23.80;99.90;;;;;;6157511;23;19971;-75
2022/03/14 01:24:24;;;;;;;;;;;24.60;99.90;;;;;;6131028;23;19902;-75
2022/03/14 01:26:52;;;;;;;;;;;25.10;99.90;;;;;;6157656;23;19900;-75
2022/03/14 01:29:18;;;;;;;;;;;24.80;99.90;;;;;;6131146;23;19907;-76
2022/03/14 01:31:45;;;;;;;;;;;24.80;99.90;;;;;;6157690;23;19980;-76
2022/03/14 01:34:12;;;;;;;;;;;24.70;99.90;;;;;;6157476;23;19907;-76
2022/03/14 01:36:39;;;;;;;;;;;24.80;99.90;;;;;;6158230;23;19901;-76
2022/03/14 01:39:05;;;;;;;;;;;24.70;99.90;;;;;;6158052;23;19915;-76
2022/03/14 01:41:32;;;;;;;;;;;24.40;99.90;;;;;;6158484;23;20318;-78
2022/03/14 01:44:01;;;;;;;;;;;23.70;99.90;;;;;;6132254;23;19900;-76
2022/03/14 01:46:27;;;;;;;;;;;23.40;99.90;;;;;;6157832;23;20269;-78
2022/03/14 01:48:55;;;;;;;;;;;23.40;99.90;;;;;;6132343;23;20325;-77
2022/03/14 01:51:23;;;;;;;;;;;23.10;99.90;;;;;;6158176;23;19900;-77
2022/03/14 01:53:50;;;;;;;;;;;22.80;99.90;;;;;;6131809;23;19983;-77
2022/03/14 01:56:18;;;;;;;;;;;22.80;99.90;;;;;;6107276;23;20007;-77
2022/03/14 01:58:46;;;;;;;;;;;22.60;99.90;;;;;;6157432;23;19904;-77
2022/03/14 02:01:13;;;;;;;;;;;22.30;99.90;;;;;;6157688;23;19953;-75
2022/03/14 02:03:40;;;;;;;;;;;22.30;99.90;;;;;;6158055;23;20061;-75
2022/03/14 02:06:08;;;;;;;;;;;22.30;99.90;;;;;;6131176;23;19916;-75
2022/03/14 02:08:35;;;;;;;;;;;22.10;99.90;;;;;;6157915;23;20242;-75
2022/03/14 02:11:01;;;;;;;;;;;22.10;99.90;;;;;;6131781;23;19968;-75
2022/03/14 02:13:29;;;;;;;;;;;22.10;99.90;;;;;;6131363;23;19900;-75
2022/03/14 02:15:55;;;;;;;;;;;22.20;99.90;;;;;;6106739;23;19979;-75
2022/03/14 02:18:22;;;;;;;;;;;22.30;99.90;;;;;;6130803;23;19905;-75
2022/03/14 02:20:49;;;;;;;;;;;22.60;99.90;;;;;;6156971;23;19901;-75
2022/03/14 02:23:15;;;;;;;;;;;23.00;99.90;;;;;;6156723;23;19900;-75
2022/03/14 02:25:49;;;;;;;;;;;23.20;99.90;;;;;;6131028;23;20233;-76
2022/03/14 02:28:20;;;;;;;;;;;23.40;99.90;;;;;;6156463;23;19908;-75
2022/03/14 02:30:47;;;;;;;;;;;23.90;99.90;;;;;;6157257;23;19979;-75
2022/03/14 02:33:14;;;;;;;;;;;24.10;99.90;;;;;;6157452;23;19924;-75
2022/03/14 02:35:41;;;;;;;;;;;24.10;99.90;;;;;;6157151;23;20288;-74
2022/03/14 02:38:14;;;;;;;;;;;24.30;99.90;;;;;;6156681;23;19959;-76
2022/03/14 02:40:42;;;;;;;;;;;24.30;99.90;;;;;;6157199;23;20229;-75
2022/03/14 02:43:09;;;;;;;;;;;24.10;99.90;;;;;;6130712;23;19908;-75
2022/03/14 02:45:36;;;;;;;;;;;24.20;99.90;;;;;;6130336;23;19910;-75
2022/03/14 02:48:02;;;;;;;;;;;24.10;99.90;;;;;;6156489;23;19900;-76
2022/03/14 02:50:30;;;;;;;;;;;23.90;99.90;;;;;;6130231;23;19908;-76
2022/03/14 02:52:57;;;;;;;;;;;23.70;99.90;;;;;;6130472;23;19905;-76
2022/03/14 02:55:25;;;;;;;;;;;23.70;99.90;;;;;;6156404;23;19935;-75
2022/03/14 02:57:52;;;;;;;;;;;23.80;99.90;;;;;;6130640;23;19904;-76
2022/03/14 03:00:19;;;;;;;;;;;23.50;99.90;;;;;;6130391;23;19907;-76
2022/03/14 03:02:45;;;;;;;;;;;23.20;99.90;;;;;;6130452;23;20222;-76
2022/03/14 03:05:12;;;;;;;;;;;23.20;99.90;;;;;;6129974;23;19932;-76
2022/03/14 03:07:39;;;;;;;;;;;23.10;99.90;;;;;;6156520;23;19978;-76
2022/03/14 03:10:07;;;;;;;;;;;23.00;99.90;;;;;;6156348;23;19908;-77
2022/03/14 03:12:40;;;;;;;;;;;23.20;99.90;;;;;;6156298;23;19908;-76
2022/03/14 03:15:07;;;;;;;;;;;23.10;99.90;;;;;;6130166;23;19904;-75
2022/03/14 03:17:34;;;;;;;;;;;23.00;99.90;;;;;;6156221;23;19904;-74
2022/03/14 03:20:04;;;;;;;;;;;22.80;99.90;;;;;;6156154;23;19916;-75
2022/03/14 03:22:30;;;;;;;;;;;22.70;99.90;;;;;;6156229;23;19901;-75
2022/03/14 03:24:57;;;;;;;;;;;22.50;99.90;;;;;;6130302;23;19932;-76
2022/03/14 03:27:24;;;;;;;;;;;22.40;99.90;;;;;;6130969;23;19900;-75
2022/03/14 03:29:51;;;;;;;;;;;22.40;99.90;;;;;;6130283;23;19948;-76
2022/03/14 03:32:17;;;;;;;;;;;22.20;99.90;;;;;;6156463;23;20318;-75
2022/03/14 03:34:44;;;;;;;;;;;22.20;99.90;;;;;;6130362;23;19900;-76
2022/03/14 03:37:11;;;;;;;;;;;21.80;99.90;;;;;;6130463;23;20361;-74
2022/03/14 03:39:38;;;;;;;;;;;21.70;99.90;;;;;;6156090;23;19909;-75
2022/03/14 03:42:04;;;;;;;;;;;21.80;99.90;;;;;;6130060;23;19901;-75
2022/03/14 03:44:31;;;;;;;;;;;21.60;99.90;;;;;;6156376;23;20340;-75
2022/03/14 03:46:58;;;;;;;;;;;21.70;99.90;;;;;;6130240;23;19901;-74
2022/03/14 03:49:25;;;;;;;;;;;21.80;99.90;;;;;;6129918;23;19907;-75
2022/03/14 03:51:51;;;;;;;;;;;21.70;99.90;;;;;;6130600;23;19901;-74
2022/03/14 03:54:18;;;;;;;;;;;21.80;99.90;;;;;;6158124;23;19932;-74
2022/03/14 03:56:46;;;;;;;;;;;21.80;99.90;;;;;;6158348;23;19908;-75
2022/03/14 03:59:12;;;;;;;;;;;21.80;99.90;;;;;;6158071;23;19904;-76
2022/03/14 04:01:39;;;;;;;;;;;22.00;99.90;;;;;;6158848;23;19901;-76
2022/03/14 04:04:06;;;;;;;;;;;21.90;99.90;;;;;;6131901;23;19904;-76
2022/03/14 04:06:34;;;;;;;;;;;22.00;99.90;;;;;;6158205;23;20290;-76
2022/03/14 04:09:01;;;;;;;;;;;22.10;99.90;;;;;;6158527;23;19908;-75
2022/03/14 04:11:28;;;;;;;;;;;22.40;99.90;;;;;;6131834;23;19901;-75
2022/03/14 04:13:58;;;;;;;;;;;22.60;99.90;;;;;;6158489;23;19939;-75
2022/03/14 04:16:26;;;;;;;;;;;22.80;99.90;;;;;;6132361;23;20270;-75
2022/03/14 04:18:53;;;;;;;;;;;22.90;99.90;;;;;;6131644;23;20388;-76
2022/03/14 04:21:20;;;;;;;;;;;23.20;99.90;;;;;;6131997;23;19907;-76
2022/03/14 04:23:48;;;;;;;;;;;23.40;99.90;;;;;;6131645;23;19972;-76
2022/03/14 04:26:14;;;;;;;;;;;23.60;99.90;;;;;;6157484;23;19923;-75
2022/03/14 04:28:41;;;;;;;;;;;23.90;99.90;;;;;;6157925;23;19900;-76
2022/03/14 04:31:09;;;;;;;;;;;24.00;99.90;;;;;;6157686;23;19907;-75
2022/03/14 04:33:36;;;;;;;;;;;24.30;99.90;;;;;;6157761;23;19927;-76
2022/03/14 04:36:04;;;;;;;;;;;24.60;99.90;;;;;;6131316;23;20357;-76
2022/03/14 04:38:31;;;;;;;;;;;25.20;99.90;;;;;;6157284;23;20332;-75
2022/03/14 04:40:57;;;;;;;;;;;25.80;99.90;;;;;;6131441;23;19955;-75
2022/03/14 04:43:24;;;;;;;;;;;26.00;99.90;;;;;;6157372;23;19901;-75
2022/03/14 04:45:51;;;;;;;;;;;26.10;99.90;;;;;;6157504;23;20310;-75
2022/03/14 04:48:18;;;;;;;;;;;26.40;99.90;;;;;;6131022;23;19975;-76
2022/03/14 04:50:45;;;;;;;;;;;26.30;99.90;;;;;;6157487;23;19908;-75
2022/03/14 04:53:11;;;;;;;;;;;26.20;99.90;;;;;;6157272;23;19911;-75
2022/03/14 04:55:38;;;;;;;;;;;25.80;99.90;;;;;;6157713;23;19900;-75
2022/03/14 04:58:05;;;;;;;;;;;25.30;99.90;;;;;;6131123;23;19955;-75
2022/03/14 05:00:33;;;;;;;;;;;25.10;99.90;;;;;;6131383;23;19900;-75
2022/03/14 05:03:04;;;;;;;;;;;24.60;99.90;;;;;;6130638;23;19952;-75
2022/03/14 05:05:30;;;;;;;;;;;24.60;99.90;;;;;;6130959;23;19912;-75
2022/03/14 05:07:57;;;;;;;;;;;24.60;99.90;;;;;;6130721;23;19911;-76
2022/03/14 05:10:24;;;;;;;;;;;24.40;99.90;;;;;;6157649;23;19907;-75
2022/03/14 05:12:53;;;;;;;;;;;24.30;99.90;;;;;;6157210;23;19923;-75
2022/03/14 05:15:19;;;;;;;;;;;24.30;99.90;;;;;;6157202;23;20299;-75
2022/03/14 05:17:47;;;;;;;;;;;24.50;99.90;;;;;;6157067;23;19901;-75
2022/03/14 05:20:14;;;;;;;;;;;25.30;99.90;;;;;;6157352;23;19900;-75
2022/03/14 05:22:42;;;;;;;;;;;25.60;99.90;;;;;;6155545;23;19955;-75
2022/03/14 05:25:09;;;;;;;;;;;26.00;99.90;;;;;;6157217;23;19901;-75
2022/03/14 05:27:35;;;;;;;;;;;25.70;99.90;;;;;;6130743;23;19911;-74
2022/03/14 05:30:02;;;;;;;;;;;25.60;99.90;;;;;;6130756;23;19901;-75
2022/03/14 05:32:29;;;;;;;;;;;25.50;99.90;;;;;;6157017;23;19904;-76
2022/03/14 05:34:56;;;;;;;;;;;25.70;99.90;;;;;;6157137;23;19906;-75
2022/03/14 05:37:22;;;;;;;;;;;26.10;99.90;;;;;;6130870;23;20274;-75
2022/03/14 05:39:49;;;;;;;;;;;26.20;99.90;;;;;;6157015;23;20324;-76
2022/03/14 05:42:15;;;;;;;;;;;26.20;99.90;;;;;;6130827;23;20354;-75
2022/03/14 05:44:45;;;;;;;;;;;25.90;99.90;;;;;;6130765;23;19934;-75
2022/03/14 05:47:12;;;;;;;;;;;26.00;99.90;;;;;;6156901;23;19907;-75
2022/03/14 05:49:39;;;;;;;;;;;26.30;99.90;;;;;;6156946;23;19955;-75
2022/03/14 05:52:06;;;;;;;;;;;26.20;99.90;;;;;;6130866;23;19900;-76
2022/03/14 05:54:36;;;;;;;;;;;26.30;99.90;;;;;;6157058;23;19900;-75
2022/03/14 05:57:03;;;;;;;;;;;26.20;99.90;;;;;;6156931;23;20310;-76
2022/03/14 05:59:29;;;;;;;;;;;25.80;99.90;;;;;;6156613;23;19905;-75
2022/03/14 06:01:56;;;;;;;;;;;25.60;99.90;;;;;;6156830;23;19901;-75
2022/03/14 06:04:23;;;;;;;;;;;25.30;99.90;;;;;;6130389;23;19901;-75
2022/03/14 06:06:49;;;;;;;;;;;25.20;99.90;;;;;;6156640;23;19913;-76
2022/03/14 06:09:16;;;;;;;;;;;25.10;99.90;;;;;;6156677;23;20004;-76
2022/03/14 06:11:43;;;;;;;;;;;24.70;99.90;;;;;;6156712;23;19901;-75
2022/03/14 06:14:11;;;;;;;;;;;24.60;99.90;;;;;;6156496;23;20269;-75
2022/03/14 06:16:38;;;;;;;;;;;24.40;99.90;;;;;;6130150;23;19912;-75
2022/03/14 06:19:05;;;;;;;;;;;24.40;99.90;;;;;;6130160;23;19991;-76
2022/03/14 06:21:34;;;;;;;;;;;24.30;99.90;;;;;;6130407;23;19900;-79
2022/03/14 06:24:02;;;;;;;;;;;24.20;99.90;;;;;;6156648;23;20242;-76
2022/03/14 06:26:28;;;;;;;;;;;24.00;99.90;;;;;;6130034;23;19900;-76
2022/03/14 06:28:55;;;;;;;;;;;23.90;99.90;;;;;;6130159;23;19922;-76
2022/03/14 06:31:21;;;;;;;;;;;23.90;99.90;;;;;;6130144;23;20350;-76
2022/03/14 06:33:49;;;;;;;;;;;23.60;99.90;;;;;;6156345;23;20055;-76
2022/03/14 06:36:16;;;;;;;;;;;23.60;99.90;;;;;;6156152;23;19907;-76
2022/03/14 06:38:42;;;;;;;;;;;23.50;99.90;;;;;;6129892;23;20345;-76
2022/03/14 06:41:11;;;;;;;;;;;23.40;99.90;;;;;;6130108;23;20372;-76
2022/03/14 06:43:37;;;;;;;;;;;23.50;99.90;;;;;;6156422;23;20352;-77
2022/03/14 06:46:05;;;;;;;;;;;23.40;99.90;;;;;;6129938;23;19901;-78
2022/03/14 06:48:39;;;;;;;;;;;23.40;99.90;;;;;;6130313;23;19901;-76
2022/03/14 06:51:06;;;;;;;;;;;23.40;99.90;;;;;;6156336;23;19953;-77
2022/03/14 06:53:32;;;;;;;;;;;23.30;99.90;;;;;;6156346;23;19931;-74
2022/03/14 06:56:00;;;;;;;;;;;23.20;99.90;;;;;;6130775;23;19940;-76
2022/03/14 06:58:26;;;;;;;;;;;23.10;99.90;;;;;;6130245;23;20318;-77
2022/03/14 07:00:53;;;;;;;;;;;23.00;99.90;;;;;;6156575;23;19924;-76
2022/03/14 07:03:20;;;;;;;;;;;22.90;99.90;;;;;;6156510;23;19986;-77
2022/03/14 07:05:46;;;;;;;;;;;22.80;99.90;;;;;;6156472;23;20226;-76
2022/03/14 07:08:13;;;;;;;;;;;22.70;99.90;;;;;;6128596;23;20318;-76
2022/03/14 07:10:40;;;;;;;;;;;22.50;99.90;;;;;;6130118;23;19907;-76
2022/03/14 07:13:06;;;;;;;;;;;22.40;99.90;;;;;;6156504;23;19995;-76
2022/03/14 07:15:33;;;;;;;;;;;22.40;99.90;;;;;;6130037;23;20014;-76
2022/03/14 07:18:00;;;;;;;;;;;22.20;99.90;;;;;;6156380;23;19908;-77
2022/03/14 07:20:27;;;;;;;;;;;22.20;99.90;;;;;;6156303;23;19911;-76
2022/03/14 07:22:57;;;;;;;;;;;22.10;99.90;;;;;;6130088;23;19900;-75
2022/03/14 07:25:28;;;;;;;;;;;22.10;99.90;;;;;;6130350;23;19908;-76
2022/03/14 07:27:55;;;;;;;;;;;22.00;99.90;;;;;;6129674;23;19959;-76
2022/03/14 07:30:26;;;;;;;;;;;21.90;99.90;;;;;;6156100;23;19901;-76
2022/03/14 07:32:53;;;;;;;;;;;21.80;99.90;;;;;;6156190;23;20285;-76
2022/03/14 07:35:20;;;;;;;;;;;21.90;99.90;;;;;;6129874;23;19932;-76
2022/03/14 07:37:47;;;;;;;;;;;21.80;99.90;;;;;;6129771;23;19901;-77
2022/03/14 07:40:15;;;;;;;;;;;21.80;99.90;;;;;;6130090;23;20306;-76
2022/03/14 07:42:43;;;;;;;;;;;21.70;99.90;;;;;;6129717;23;19931;-76
2022/03/14 07:45:10;;;;;;;;;;;21.70;99.90;;;;;;6156137;23;19905;-77
2022/03/14 07:47:37;;;;;;;;;;;21.70;99.90;;;;;;6156704;23;19956;-78
2022/03/14 07:50:08;;;;;;;;;;;21.80;99.90;;;;;;6130158;23;20238;-78
2022/03/14 07:52:35;;;;;;;;;;;21.80;99.90;;;;;;6130404;23;19901;-77
2022/03/14 07:55:02;;;;;;;;;;;21.80;99.90;;;;;;6130365;23;20233;-78
2022/03/14 07:57:31;;;;;;;;;;;21.80;99.90;;;;;;6156418;23;19983;-77
2022/03/14 07:59:59;;;;;;;;;;;21.80;99.90;;;;;;6129993;23;19912;-77
2022/03/14 08:02:26;;;;;;;;;;;21.70;99.90;;;;;;6129915;23;19963;-77
2022/03/14 08:04:53;;;;;;;;;;;21.60;99.90;;;;;;6155999;23;20245;-77
2022/03/14 08:07:20;;;;;;;;;;;21.50;99.90;;;;;;6156504;23;19907;-76
2022/03/14 08:09:51;;;;;;;;;;;21.40;99.90;;;;;;6156239;23;19936;-76
2022/03/14 08:12:17;;;;;;;;;;;21.30;99.90;;;;;;6129918;23;19904;-76
2022/03/14 08:14:46;;;;;;;;;;;21.20;99.90;;;;;;6156103;23;20226;-76
2022/03/14 08:17:12;;;;;;;;;;;21.10;99.90;;;;;;6129975;23;19955;-74
2022/03/14 08:19:39;;;;;;;;;;;21.00;99.90;;;;;;6130463;23;19904;-74
2022/03/14 08:22:06;;;;;;;;;;;20.90;99.90;;;;;;6130120;23;19908;-76
2022/03/14 08:24:33;;;;;;;;;;;20.90;99.90;;;;;;6130258;23;19983;-74
2022/03/14 08:27:01;;;;;;;;;;;20.80;99.90;;;;;;6156113;23;19908;-75
2022/03/14 08:29:28;;;;;;;;;;;20.80;99.90;;;;;;6159302;23;19901;-75
2022/03/14 08:31:55;;;;;;;;;;;20.70;99.90;;;;;;6156375;23;20024;-74
2022/03/14 08:34:22;;;;;;;;;;;20.60;99.90;;;;;;6155770;23;19979;-74
2022/03/14 08:36:48;;;;;;;;;;;20.50;99.90;;;;;;6156546;23;19907;-74
2022/03/14 08:39:15;;;;;;;;;;;20.50;99.90;;;;;;6131661;23;20282;-75
2022/03/14 08:41:42;;;;;;;;;;;20.40;99.90;;;;;;6158180;23;19907;-74
2022/03/14 08:44:09;;;;;;;;;;;20.30;99.90;;;;;;6132121;23;19950;-75
2022/03/14 08:46:36;;;;;;;;;;;20.30;99.90;;;;;;6157804;23;19904;-75
2022/03/14 08:49:03;;;;;;;;;;;20.30;99.90;;;;;;6157685;23;20266;-76
2022/03/14 08:51:29;;;;;;;;;;;20.30;99.90;;;;;;6131554;23;20314;-75
2022/03/14 08:53:56;;;;;;;;;;;20.30;99.90;;;;;;6158234;23;19900;-76
2022/03/14 08:56:22;;;;;;;;;;;20.30;99.90;;;;;;6158055;23;19923;-75
2022/03/14 08:58:49;;;;;;;;;;;20.30;99.90;;;;;;6157756;23;19905;-75
2022/03/14 09:01:16;;;;;;;;;;;20.30;99.90;;;;;;6157657;23;19901;-75
2022/03/14 09:03:42;;;;;;;;;;;20.30;99.90;;;;;;6157649;23;19907;-76
2022/03/14 09:06:09;;;;;;;;;;;20.30;99.90;;;;;;6131254;23;19983;-76
2022/03/14 09:08:36;;;;;;;;;;;20.30;99.90;;;;;;6131830;23;19967;-75
2022/03/14 09:11:03;;;;;;;;;;;20.30;99.90;;;;;;6131654;23;20337;-75
2022/03/14 09:13:29;;;;;;;;;;;20.30;99.90;;;;;;6157809;23;20344;-77
2022/03/14 09:15:56;;;;;;;;;;;20.30;99.90;;;;;;6132080;23;19900;-77
2022/03/14 09:18:28;;;;;;;;;;;20.30;99.90;;;;;;6131750;23;19904;-77
2022/03/14 09:20:56;;;;;;;;;;;20.20;99.90;;;;;;6157891;23;20234;-77
2022/03/14 09:23:24;;;;;;;;;;;20.20;99.90;;;;;;6131459;23;19907;-78
2022/03/14 09:25:52;;;;;;;;;;;20.20;99.90;;;;;;6131356;23;19900;-78
2022/03/14 09:28:20;;;;;;;;;;;20.10;99.90;;;;;;6157631;23;19900;-77
2022/03/14 09:30:47;;;;;;;;;;;20.10;99.90;;;;;;6157457;23;20472;-78
2022/03/14 09:33:14;;;;;;;;;;;20.10;99.90;;;;;;6157649;23;19947;-76
2022/03/14 09:35:41;;;;;;;;;;;20.00;99.90;;;;;;6131150;23;19900;-77
2022/03/14 09:38:07;;;;;;;;;;;20.10;99.90;;;;;;6131087;23;19909;-77
2022/03/14 09:40:34;;;;;;;;;;;20.10;99.90;;;;;;6157635;23;19908;-78
2022/03/14 09:43:01;;;;;;;;;;;20.00;99.90;;;;;;6157544;23;19900;-76
2022/03/14 09:45:28;;;;;;;;;;;20.00;99.90;;;;;;6157350;23;19908;-77
2022/03/14 09:47:58;;;;;;;;;;;20.00;99.90;;;;;;6157173;23;19900;-75
2022/03/14 09:50:28;;;;;;;;;;;20.00;99.90;;;;;;6156739;23;20231;-76
2022/03/14 09:52:58;;;;;;;;;;;20.00;99.90;;;;;;6131224;23;20234;-77
2022/03/14 09:55:25;;;;;;;;;;;20.00;99.90;;;;;;6131259;23;19900;-79
2022/03/14 09:57:52;;;;;;;;;;;19.90;99.90;;;;;;6157143;23;20266;-76
2022/03/14 10:00:19;;;;;;;;;;;20.00;99.90;;;;;;6157403;23;19908;-77
2022/03/14 10:02:46;;;;;;;;;;;20.00;99.90;;;;;;6131395;23;20305;-76
2022/03/14 10:05:14;;;;;;;;;;;19.90;99.90;;;;;;6121199;23;19988;-76
2022/03/14 10:07:43;;;;;;;;;;;19.80;99.90;;;;;;6101833;23;20334;-74
2022/03/14 10:10:10;;;;;;;;;;;19.70;99.90;;;;;;6101599;23;19932;-75
2022/03/14 10:12:36;;;;;;;;;;;19.70;99.90;;;;;;6127908;23;20070;-75
2022/03/14 10:15:04;;;;;;;;;;;19.70;99.90;;;;;;6127635;23;19952;-75
2022/03/14 10:17:32;;;;;;;;;;;19.70;99.90;;;;;;6127556;23;19901;-76
2022/03/14 10:20:00;;;;;;;;;;;19.70;99.90;;;;;;6127818;23;19987;-75
2022/03/14 10:22:36;;;;;;;;;;;19.80;99.90;;;;;;6101964;23;20212;-74
2022/03/14 10:25:05;;;;;;;;;;;19.70;99.90;;;;;;6127694;23;19984;-76
2022/03/14 10:27:33;;;;;;;;;;;19.80;99.90;;;;;;6127600;23;19984;-74
2022/03/14 10:30:00;;;;;;;;;;;19.80;99.90;;;;;;6127697;23;19901;-75
2022/03/14 10:32:30;;;;;;;;;;;19.80;99.90;;;;;;6101360;23;19983;-76
2022/03/14 10:35:20;;;;;;;;;;;19.90;99.90;;;;;;6127608;23;20216;-75
2022/03/14 10:38:01;;;;;;;;;;;19.90;99.90;;;;;;6128162;23;19901;-75
2022/03/14 10:40:32;;;;;;;;;;;19.90;99.90;;;;;;6127502;23;19901;-76
2022/03/14 10:43:00;;;;;;;;;;;19.80;99.90;;;;;;6128248;23;20040;-76
2022/03/14 10:45:26;;;;;;;;;;;19.80;99.90;;;;;;6127350;23;19923;-75
2022/03/14 10:47:57;;;;;;;;;;;19.80;99.90;;;;;;6127397;23;19901;-76
2022/03/14 10:50:30;;;;;;;;;;;19.80;99.90;;;;;;6127137;23;19916;-76
2022/03/14 10:53:11;;;;;;;;;;;19.70;99.90;;;;;;6101528;23;19901;-76
2022/03/14 10:55:38;;;;;;;;;;;19.70;99.90;;;;;;6101605;23;19908;-76
2022/03/14 10:58:11;;;;;;;;;;;19.80;99.90;;;;;;6127338;23;19901;-76
2022/03/14 11:00:45;;;;;;;;;;;19.80;99.90;;;;;;6101559;23;19908;-75
2022/03/14 11:03:11;;;;;;;;;;;19.90;99.90;;;;;;6101769;23;19947;-76
2022/03/14 11:05:44;;;;;;;;;;;19.90;99.90;;;;;;6141781;23;19916;-76
2022/03/14 11:08:27;;;;;;;;;;;19.90;99.90;;;;;;6157016;23;19900;-76
2022/03/14 11:10:54;;;;;;;;;;;20.00;99.90;;;;;;6156821;23;20321;-75
2022/03/14 11:13:21;;;;;;;;;;;20.00;99.90;;;;;;6156729;23;19904;-76
2022/03/14 11:15:48;;;;;;;;;;;20.10;99.90;;;;;;6156863;23;20299;-76
2022/03/14 11:18:17;;;;;;;;;;;20.20;99.90;;;;;;6130644;23;19911;-75
2022/03/14 11:20:44;;;;;;;;;;;20.20;99.90;;;;;;6130591;23;19901;-76
2022/03/14 11:23:13;;;;;;;;;;;20.20;99.90;;;;;;6157152;23;19901;-76
2022/03/14 11:25:42;;;;;;;;;;;20.20;99.90;;;;;;6156432;23;19908;-76
2022/03/14 11:28:09;;;;;;;;;;;20.20;99.90;;;;;;6156542;23;19932;-76
2022/03/14 11:30:36;;;;;;;;;;;20.20;99.90;;;;;;6156645;23;19955;-76
2022/03/14 11:33:03;;;;;;;;;;;20.20;99.90;;;;;;6131407;23;20372;-75
2022/03/14 11:35:30;;;;;;;;;;;20.20;99.90;;;;;;6131056;23;19928;-76
2022/03/14 11:37:57;;;;;;;;;;;20.20;99.90;;;;;;6157009;23;19905;-76
2022/03/14 11:40:24;;;;;;;;;;;20.20;99.90;;;;;;6156490;23;19900;-75
2022/03/14 11:42:53;;;;;;;;;;;20.10;99.90;;;;;;6156704;23;20268;-75
2022/03/14 11:45:20;;;;;;;;;;;20.10;99.90;;;;;;6156929;23;19901;-75
2022/03/14 11:47:47;;;;;;;;;;;20.10;99.90;;;;;;6130276;23;19947;-75
2022/03/14 11:50:16;;;;;;;;;;;20.10;99.90;;;;;;6156621;23;19908;-75
2022/03/14 11:52:43;;;;;;;;;;;20.10;99.90;;;;;;6133486;23;19901;-76
2022/03/14 11:55:23;;;;;;;;;;;20.10;99.90;;;;;;6156250;23;19954;-76
2022/03/14 11:57:50;;;;;;;;;;;20.10;99.90;;;;;;6130318;23;19905;-76
2022/03/14 12:00:25;;;;;;;;;;;20.10;99.90;;;;;;6156477;23;20361;-76
2022/03/14 12:02:53;;;;;;;;;;;20.10;99.90;;;;;;6157229;23;19925;-76
2022/03/14 12:05:24;;;;;;;;;;;20.10;99.90;;;;;;6155990;23;19919;-77
2022/03/14 12:07:51;;;;;;;;;;;20.10;99.90;;;;;;6156542;23;20265;-76
2022/03/14 12:10:31;;;;;;;;;;;20.20;99.90;;;;;;6156058;23;19900;-75
2022/03/14 12:13:01;;;;;;;;;;;20.20;99.90;;;;;;6156823;23;19901;-76
2022/03/14 12:15:39;;;;;;;;;;;20.20;99.90;;;;;;6132091;23;19978;-75
2022/03/14 12:18:24;;;;;;;;;;;20.20;99.90;;;;;;6131944;23;20310;-75
2022/03/14 12:20:51;;;;;;;;;;;20.20;99.90;;;;;;6131931;23;19969;-75
2022/03/14 12:23:28;;;;;;;;;;;20.30;99.90;;;;;;6132112;23;19944;-75
2022/03/14 12:25:55;;;;;;;;;;;20.30;99.90;;;;;;6157877;23;19900;-75
2022/03/14 12:28:29;;;;;;;;;;;20.30;99.90;;;;;;6158354;23;20238;-75
2022/03/14 12:31:05;;;;;;;;;;;20.30;99.90;;;;;;6157838;23;19959;-75
2022/03/14 12:33:36;;;;;;;;;;;20.40;99.90;;;;;;6131819;23;19907;-75
2022/03/14 12:36:24;;;;;;;;;;;20.40;99.90;;;;;;6158071;23;19927;-76
2022/03/14 12:39:06;;;;;;;;;;;20.40;99.90;;;;;;6131613;23;19908;-76
2022/03/14 12:41:33;;;;;;;;;;;20.40;99.90;;;;;;6158095;23;19901;-76
2022/03/14 12:44:00;;;;;;;;;;;20.30;99.90;;;;;;6131483;23;19901;-76
2022/03/14 12:46:28;;;;;;;;;;;20.30;99.90;;;;;;6157791;23;19931;-76
2022/03/14 12:48:56;;;;;;;;;;;20.20;99.90;;;;;;6131448;23;19901;-75
2022/03/14 12:51:27;;;;;;;;;;;20.20;99.90;;;;;;6157747;23;19979;-75
2022/03/14 12:53:57;;;;;;;;;;;20.20;99.90;;;;;;6157719;23;19905;-76
2022/03/14 12:56:25;;;;;;;;;;;20.10;99.90;;;;;;6157751;23;19983;-75
2022/03/14 12:58:53;;;;;;;;;;;20.10;99.90;;;;;;6131421;23;19910;-77
2022/03/14 13:01:20;;;;;;;;;;;20.10;99.90;;;;;;6157724;23;20341;-75
2022/03/14 13:03:47;;;;;;;;;;;20.00;99.90;;;;;;6131566;23;20289;-75
2022/03/14 13:06:14;;;;;;;;;;;19.90;99.90;;;;;;6157470;23;19944;-74
2022/03/14 13:08:50;;;;;;;;;;;19.90;99.90;;;;;;6157601;23;19904;-75
2022/03/14 13:11:17;;;;;;;;;;;19.90;99.90;;;;;;6131581;23;19912;-75
2022/03/14 13:13:47;;;;;;;;;;;19.90;99.90;;;;;;6158009;23;19901;-76
2022/03/14 13:16:18;;;;;;;;;;;19.80;99.90;;;;;;6131371;23;19901;-75
2022/03/14 13:18:48;;;;;;;;;;;19.70;99.90;;;;;;6157358;23;19934;-75
2022/03/14 13:21:23;;;;;;;;;;;19.70;99.90;;;;;;6131380;23;20310;-75
2022/03/14 13:23:53;;;;;;;;;;;19.70;99.90;;;;;;6157182;23;19971;-76
2022/03/14 13:26:20;;;;;;;;;;;19.70;99.90;;;;;;6157492;23;20241;-75
2022/03/14 13:28:48;;;;;;;;;;;19.90;99.90;;;;;;6131566;23;19911;-75
2022/03/14 13:31:15;;;;;;;;;;;20.00;99.90;;;;;;6131397;23;19900;-75
2022/03/14 13:33:43;;;;;;;;;;;20.00;99.90;;;;;;6157713;23;19901;-74
2022/03/14 13:36:11;;;;;;;;;;;20.00;99.90;;;;;;6157679;23;19947;-74
2022/03/14 13:38:52;;;;;;;;;;;20.10;99.90;;;;;;6157454;23;19954;-75
2022/03/14 13:41:26;;;;;;;;;;;20.00;99.90;;;;;;6157429;23;20274;-75
2022/03/14 13:43:54;;;;;;;;;;;20.00;99.90;;;;;;6157503;23;19900;-76
2022/03/14 13:46:24;;;;;;;;;;;19.90;99.90;;;;;;6157266;23;20281;-75
2022/03/14 13:48:52;;;;;;;;;;;19.90;99.90;;;;;;6157320;23;20031;-75
2022/03/14 13:51:20;;;;;;;;;;;19.90;99.90;;;;;;6157620;23;19967;-75
2022/03/14 13:53:49;;;;;;;;;;;19.80;99.90;;;;;;6157355;23;19905;-75
2022/03/14 13:56:16;;;;;;;;;;;19.80;99.90;;;;;;6157165;23;20341;-75
2022/03/14 13:58:55;;;;;;;;;;;19.70;99.90;;;;;;6130845;23;19904;-75
2022/03/14 14:01:39;;;;;;;;;;;19.60;99.90;;;;;;6157098;23;19901;-75
2022/03/14 14:04:16;;;;;;;;;;;19.60;99.90;;;;;;6157310;23;19908;-75
2022/03/14 14:06:46;;;;;;;;;;;19.50;99.90;;;;;;6157422;23;19982;-75
2022/03/14 14:09:24;;;;;;;;;;;19.50;99.90;;;;;;6157120;23;19939;-75
2022/03/14 14:11:56;;;;;;;;;;;19.50;99.90;;;;;;6131263;23;20330;-75
2022/03/14 14:14:29;;;;;;;;;;;19.50;99.90;;;;;;6131316;23;19901;-75
2022/03/14 14:17:15;;;;;;;;;;;19.50;99.90;;;;;;6131187;23;19947;-75
2022/03/14 14:20:00;;;;;;;;;;;19.50;99.90;;;;;;6157170;23;19936;-75
2022/03/14 14:22:31;;;;;;;;;;;19.50;99.90;;;;;;6130908;23;19923;-76